Time;durP1;ratioP1;P1;durP2;ratioP2;P2;SDS_P1;SDS_P2;PMS_P1;PMS_P2;Temp;Humidity;BMP_temperature;BMP_pressure;BME280_temperature;BME280_humidity;BME280_pressure;Samples;Min_cycle;Max_cycle;Signal;HPM_P1;HPM_P2
2023/03/11 00:02:12;;;;;;;5.05;1.55;;;;;;;;;;5047533;28;20503;-79
2023/03/11 00:04:38;;;;;;;9.77;1.70;;;;;;;;;;5054211;28;20444;-79
2023/03/11 00:07:08;;;;;;;9.02;1.60;;;;;;;;;;5053678;28;20033;-79
2023/03/11 00:09:34;;;;;;;8.40;1.58;;;;;;;;;;5055126;28;20037;-79
2023/03/11 00:12:00;;;;;;;8.48;1.33;;;;;;;;;;5053644;28;20041;-79
2023/03/11 00:14:27;;;;;;;10.52;1.48;;;;;;;;;;5070635;28;20041;-79
2023/03/11 00:16:53;;;;;;;9.82;1.30;;;;;;;;;;5053423;28;20040;-80
2023/03/11 00:19:19;;;;;;;10.65;1.80;;;;;;;;;;5053763;28;20483;-79
2023/03/11 00:21:45;;;;;;;4.90;1.30;;;;;;;;;;5054858;28;20414;-78
2023/03/11 00:24:11;;;;;;;6.05;1.40;;;;;;;;;;5054334;28;20471;-78
2023/03/11 00:26:37;;;;;;;5.57;1.27;;;;;;;;;;5046277;28;20037;-79
2023/03/11 00:29:03;;;;;;;5.60;1.50;;;;;;;;;;5065083;28;20049;-79
2023/03/11 00:31:30;;;;;;;8.00;1.40;;;;;;;;;;5059481;28;20040;-78
2023/03/11 00:33:56;;;;;;;11.43;1.88;;;;;;;;;;5056983;28;20097;-78
2023/03/11 00:36:24;;;;;;;8.55;1.50;;;;;;;;;;5071004;28;20060;-78
2023/03/11 00:38:51;;;;;;;4.85;1.23;;;;;;;;;;5062961;28;20135;-78
2023/03/11 00:41:17;;;;;;;5.82;1.13;;;;;;;;;;5073401;28;20398;-79
2023/03/11 00:43:43;;;;;;;5.38;1.58;;;;;;;;;;5056678;28;20044;-79
2023/03/11 00:46:09;;;;;;;10.23;1.40;;;;;;;;;;5074622;28;20463;-79
2023/03/11 00:48:35;;;;;;;11.52;1.70;;;;;;;;;;5073019;28;20040;-79
2023/03/11 00:51:01;;;;;;;13.15;1.50;;;;;;;;;;5063583;28;20116;-79
2023/03/11 00:53:27;;;;;;;4.93;1.40;;;;;;;;;;5069855;28;20055;-79
2023/03/11 00:55:53;;;;;;;4.32;0.90;;;;;;;;;;5074620;28;20373;-80
2023/03/11 00:58:21;;;;;;;13.98;3.10;;;;;;;;;;5073367;28;20072;-79
2023/03/11 01:00:47;;;;;;;7.95;1.77;;;;;;;;;;5020736;28;20037;-79
2023/03/11 01:03:13;;;;;;;5.45;1.35;;;;;;;;;;5066049;28;20040;-80
2023/03/11 01:05:39;;;;;;;7.18;1.25;;;;;;;;;;5052971;28;20502;-80
2023/03/11 01:08:06;;;;;;;4.32;1.20;;;;;;;;;;5069150;28;20091;-80
2023/03/11 01:10:32;;;;;;;5.10;1.23;;;;;;;;;;5054393;28;20041;-80
2023/03/11 01:12:58;;;;;;;9.25;1.27;;;;;;;;;;5052858;28;20079;-79
2023/03/11 01:15:29;;;;;;;6.72;1.02;;;;;;;;;;5052549;28;20048;-79
2023/03/11 01:17:56;;;;;;;4.18;0.93;;;;;;;;;;5053038;28;20402;-81
2023/03/11 01:20:22;;;;;;;3.10;0.98;;;;;;;;;;5051689;28;20029;-79
2023/03/11 01:22:48;;;;;;;4.25;1.15;;;;;;;;;;5041676;28;20083;-81
2023/03/11 01:25:15;;;;;;;8.73;1.17;;;;;;;;;;5053478;28;20072;-81
2023/03/11 01:27:41;;;;;;;6.20;1.30;;;;;;;;;;5052527;28;20041;-79
2023/03/11 01:30:07;;;;;;;4.40;0.95;;;;;;;;;;5053108;28;20037;-79
2023/03/11 01:32:34;;;;;;;6.03;1.10;;;;;;;;;;5052757;28;20445;-79
2023/03/11 01:35:00;;;;;;;3.92;1.00;;;;;;;;;;5069042;28;20515;-79
2023/03/11 01:37:26;;;;;;;4.35;1.00;;;;;;;;;;5066732;28;20450;-79
2023/03/11 01:39:52;;;;;;;4.80;1.08;;;;;;;;;;5039674;28;20459;-79
2023/03/11 01:42:18;;;;;;;4.70;1.30;;;;;;;;;;5064466;28;20040;-81
2023/03/11 01:44:44;;;;;;;4.20;1.00;;;;;;;;;;5052347;28;20098;-81
2023/03/11 01:47:10;;;;;;;5.25;1.00;;;;;;;;;;5053325;28;20044;-79
2023/03/11 01:49:40;;;;;;;4.10;0.98;;;;;;;;;;5065759;28;20044;-79
2023/03/11 01:52:07;;;;;;;4.65;1.05;;;;;;;;;;5072106;28;20048;-81
2023/03/11 01:54:35;;;;;;;2.60;0.95;;;;;;;;;;5072361;28;20078;-79
2023/03/11 01:57:04;;;;;;;4.63;1.10;;;;;;;;;;5058353;28;20557;-81
2023/03/11 01:59:32;;;;;;;5.55;1.10;;;;;;;;;;5071984;28;20044;-79
2023/03/11 02:02:06;;;;;;;4.47;1.05;;;;;;;;;;5059653;28;20041;-79
2023/03/11 02:04:33;;;;;;;7.25;1.02;;;;;;;;;;5061585;28;20044;-81
2023/03/11 02:06:59;;;;;;;4.88;1.00;;;;;;;;;;5082547;28;20119;-81
2023/03/11 02:09:25;;;;;;;3.60;1.00;;;;;;;;;;5051465;28;20040;-81
2023/03/11 02:11:52;;;;;;;4.22;0.95;;;;;;;;;;5051847;28;20037;-81
2023/03/11 02:14:19;;;;;;;4.43;1.20;;;;;;;;;;5051403;28;20110;-81
2023/03/11 02:16:45;;;;;;;3.30;1.00;;;;;;;;;;5052823;28;20036;-81
2023/03/11 02:19:26;;;;;;;4.68;1.00;;;;;;;;;;5035090;28;20518;-79
2023/03/11 02:21:52;;;;;;;3.38;1.20;;;;;;;;;;5052616;28;20037;-79
2023/03/11 02:24:35;;;;;;;4.13;1.00;;;;;;;;;;5034857;28;20479;-79
2023/03/11 02:27:02;;;;;;;6.47;1.25;;;;;;;;;;5051388;28;20072;-79
2023/03/11 02:29:29;;;;;;;6.00;1.50;;;;;;;;;;5051225;28;20051;-79
2023/03/11 02:31:56;;;;;;;2.47;1.20;;;;;;;;;;5043060;28;20045;-79
2023/03/11 02:34:26;;;;;;;6.28;1.30;;;;;;;;;;5042196;28;20041;-81
2023/03/11 02:36:53;;;;;;;4.78;1.10;;;;;;;;;;5052523;28;20044;-79
2023/03/11 02:39:29;;;;;;;3.13;1.00;;;;;;;;;;5066401;28;20044;-78
2023/03/11 02:41:56;;;;;;;5.25;1.13;;;;;;;;;;5052726;28;20045;-82
2023/03/11 02:44:22;;;;;;;7.60;1.02;;;;;;;;;;5047778;28;20079;-80
2023/03/11 02:46:48;;;;;;;8.48;1.45;;;;;;;;;;5052442;28;20052;-80
2023/03/11 02:49:15;;;;;;;8.13;1.30;;;;;;;;;;5050433;28;20135;-79
2023/03/11 02:51:41;;;;;;;6.45;1.30;;;;;;;;;;5050932;28;20055;-79
2023/03/11 02:54:07;;;;;;;7.63;1.10;;;;;;;;;;5050978;28;20044;-79
2023/03/11 02:56:33;;;;;;;6.65;1.20;;;;;;;;;;5050768;28;20076;-81
2023/03/11 02:58:59;;;;;;;3.83;1.08;;;;;;;;;;5050958;28;20049;-79
2023/03/11 03:01:25;;;;;;;5.18;1.27;;;;;;;;;;5044770;28;20040;-78
2023/03/11 03:03:51;;;;;;;6.05;1.17;;;;;;;;;;5050146;28;20081;-79
2023/03/11 03:06:17;;;;;;;7.05;1.30;;;;;;;;;;5049395;28;20041;-79
2023/03/11 03:08:44;;;;;;;2.45;0.98;;;;;;;;;;5050758;28;20037;-81
2023/03/11 03:11:10;;;;;;;6.85;1.52;;;;;;;;;;5050696;28;20073;-79
2023/03/11 03:13:36;;;;;;;7.22;1.23;;;;;;;;;;5051972;28;20037;-78
2023/03/11 03:16:02;;;;;;;4.10;1.42;;;;;;;;;;5034399;28;20049;-81
2023/03/11 03:18:28;;;;;;;5.60;1.30;;;;;;;;;;5051764;28;20036;-79
2023/03/11 03:20:54;;;;;;;3.30;1.15;;;;;;;;;;5067521;28;20102;-78
2023/03/11 03:23:20;;;;;;;2.38;1.08;;;;;;;;;;5051620;28;20045;-78
2023/03/11 03:25:47;;;;;;;5.35;1.42;;;;;;;;;;5034166;28;20111;-78
2023/03/11 03:28:13;;;;;;;4.68;1.20;;;;;;;;;;5034047;28;20037;-78
2023/03/11 03:30:40;;;;;;;4.15;1.02;;;;;;;;;;5033264;28;20041;-78
2023/03/11 03:33:06;;;;;;;2.78;1.38;;;;;;;;;;5050670;28;20130;-78
2023/03/11 03:35:32;;;;;;;5.15;1.25;;;;;;;;;;5050132;28;20048;-78
2023/03/11 03:37:59;;;;;;;5.72;1.20;;;;;;;;;;5033947;28;20102;-79
2023/03/11 03:40:25;;;;;;;7.10;1.02;;;;;;;;;;5051138;28;20037;-81
2023/03/11 03:42:51;;;;;;;3.05;1.25;;;;;;;;;;5033836;28;20055;-78
2023/03/11 03:45:17;;;;;;;3.80;1.25;;;;;;;;;;5059501;28;20036;-78
2023/03/11 03:47:43;;;;;;;4.75;1.75;;;;;;;;;;5070145;28;20120;-78
2023/03/11 03:50:10;;;;;;;3.35;1.55;;;;;;;;;;5055501;28;20037;-81
2023/03/11 03:52:37;;;;;;;6.55;1.77;;;;;;;;;;5050225;28;20043;-81
2023/03/11 03:55:04;;;;;;;5.63;1.30;;;;;;;;;;5050666;28;20044;-81
2023/03/11 03:57:30;;;;;;;4.05;1.92;;;;;;;;;;5050555;28;20548;-81
2023/03/11 03:59:56;;;;;;;3.45;1.00;;;;;;;;;;5052126;28;20040;-78
2023/03/11 04:02:22;;;;;;;3.78;1.20;;;;;;;;;;5053837;28;20503;-78
2023/03/11 04:04:48;;;;;;;3.92;1.10;;;;;;;;;;5054113;28;20036;-78
2023/03/11 04:07:15;;;;;;;5.25;1.20;;;;;;;;;;5055198;28;20499;-78
2023/03/11 04:09:42;;;;;;;5.25;1.40;;;;;;;;;;5053638;28;20103;-81
2023/03/11 04:12:13;;;;;;;4.43;1.20;;;;;;;;;;5037266;28;20041;-81
2023/03/11 04:14:39;;;;;;;7.07;1.52;;;;;;;;;;5053838;28;20041;-81
2023/03/11 04:17:05;;;;;;;4.50;1.05;;;;;;;;;;5053892;28;20445;-81
2023/03/11 04:19:31;;;;;;;6.60;1.50;;;;;;;;;;5053503;28;20048;-81
2023/03/11 04:21:58;;;;;;;3.38;1.25;;;;;;;;;;5053597;28;20087;-77
2023/03/11 04:24:24;;;;;;;4.75;1.27;;;;;;;;;;5053633;28;20116;-78
2023/03/11 04:26:50;;;;;;;5.00;1.40;;;;;;;;;;5053592;28;20040;-82
2023/03/11 04:29:16;;;;;;;5.07;1.30;;;;;;;;;;5053535;28;20047;-78
2023/03/11 04:31:42;;;;;;;4.38;1.48;;;;;;;;;;5053446;28;20436;-77
2023/03/11 04:34:08;;;;;;;6.10;1.25;;;;;;;;;;5053597;28;20059;-77
2023/03/11 04:36:34;;;;;;;4.63;1.17;;;;;;;;;;5053033;28;20068;-81
2023/03/11 04:39:01;;;;;;;3.40;1.20;;;;;;;;;;5053897;28;20437;-81
2023/03/11 04:41:27;;;;;;;6.28;1.20;;;;;;;;;;5072383;28;20036;-77
2023/03/11 04:43:53;;;;;;;4.75;1.30;;;;;;;;;;5063798;28;20040;-81
2023/03/11 04:46:19;;;;;;;2.60;1.20;;;;;;;;;;5053856;28;20068;-81
2023/03/11 04:48:45;;;;;;;3.45;1.35;;;;;;;;;;5056598;28;20041;-81
2023/03/11 04:51:11;;;;;;;2.47;1.20;;;;;;;;;;5059167;28;20048;-77
2023/03/11 04:53:37;;;;;;;4.65;1.30;;;;;;;;;;5072962;28;20048;-77
2023/03/11 04:56:03;;;;;;;6.38;1.30;;;;;;;;;;5056380;28;20044;-77
2023/03/11 04:58:29;;;;;;;8.52;1.42;;;;;;;;;;5072649;28;20037;-77
2023/03/11 05:00:55;;;;;;;5.55;1.27;;;;;;;;;;5065935;28;20379;-77
2023/03/11 05:03:21;;;;;;;5.90;1.75;;;;;;;;;;5067433;28;20127;-80
2023/03/11 05:05:47;;;;;;;4.88;1.27;;;;;;;;;;5056637;28;20036;-77
2023/03/11 05:08:14;;;;;;;3.97;1.00;;;;;;;;;;5052662;28;20045;-77
2023/03/11 05:10:41;;;;;;;5.63;1.45;;;;;;;;;;5051904;28;20033;-76
2023/03/11 05:13:07;;;;;;;3.58;1.20;;;;;;;;;;5057279;28;20131;-77
2023/03/11 05:15:34;;;;;;;3.28;1.27;;;;;;;;;;5061717;28;20041;-81
2023/03/11 05:18:00;;;;;;;11.30;1.60;;;;;;;;;;5036116;28;20045;-81
2023/03/11 05:20:26;;;;;;;6.75;1.20;;;;;;;;;;5044679;28;20068;-77
2023/03/11 05:22:52;;;;;;;8.50;1.45;;;;;;;;;;5046371;28;20388;-76
2023/03/11 05:25:18;;;;;;;5.13;1.25;;;;;;;;;;5053068;28;20041;-81
2023/03/11 05:27:44;;;;;;;5.05;1.30;;;;;;;;;;5053426;28;20559;-76
2023/03/11 05:30:11;;;;;;;4.53;1.42;;;;;;;;;;5052237;28;20037;-76
2023/03/11 05:32:37;;;;;;;4.13;1.30;;;;;;;;;;5052418;28;20045;-76
2023/03/11 05:35:03;;;;;;;4.90;1.20;;;;;;;;;;5052506;28;20049;-76
2023/03/11 05:37:31;;;;;;;4.32;1.20;;;;;;;;;;5053623;28;20057;-80
2023/03/11 05:39:57;;;;;;;7.80;1.40;;;;;;;;;;5059965;28;20169;-76
2023/03/11 05:42:23;;;;;;;2.35;1.20;;;;;;;;;;5073233;28;20124;-81
2023/03/11 05:44:49;;;;;;;4.82;1.33;;;;;;;;;;5053357;28;20044;-81
2023/03/11 05:47:18;;;;;;;3.78;1.33;;;;;;;;;;5053323;28;20514;-75
2023/03/11 05:49:46;;;;;;;5.93;1.90;;;;;;;;;;5070282;28;20486;-76
2023/03/11 05:52:12;;;;;;;5.43;1.65;;;;;;;;;;5071876;28;20093;-80
2023/03/11 05:54:38;;;;;;;6.88;1.35;;;;;;;;;;5057740;28;20041;-76
2023/03/11 05:57:04;;;;;;;6.88;1.45;;;;;;;;;;5065432;28;20053;-75
2023/03/11 05:59:31;;;;;;;7.25;1.67;;;;;;;;;;5051936;28;20052;-80
2023/03/11 06:01:57;;;;;;;5.93;1.10;;;;;;;;;;5062173;28;20040;-81
2023/03/11 06:04:24;;;;;;;4.38;1.20;;;;;;;;;;5071976;28;20506;-75
2023/03/11 06:06:50;;;;;;;8.25;1.40;;;;;;;;;;5071956;28;20445;-81
2023/03/11 06:09:16;;;;;;;4.88;1.65;;;;;;;;;;5071597;28;20041;-75
2023/03/11 06:11:42;;;;;;;14.35;1.48;;;;;;;;;;5054428;28;20040;-76
2023/03/11 06:14:12;;;;;;;5.00;1.50;;;;;;;;;;5073036;28;20040;-81
2023/03/11 06:16:39;;;;;;;6.20;1.60;;;;;;;;;;5072841;28;20133;-81
2023/03/11 06:19:05;;;;;;;7.28;1.52;;;;;;;;;;5066151;28;20041;-81
2023/03/11 06:21:31;;;;;;;7.22;1.50;;;;;;;;;;5051474;28;20036;-76
2023/03/11 06:23:57;;;;;;;6.03;1.75;;;;;;;;;;5069331;28;20039;-82
2023/03/11 06:26:24;;;;;;;5.15;1.70;;;;;;;;;;5060942;28;20446;-76
2023/03/11 06:28:50;;;;;;;6.57;2.78;;;;;;;;;;5067720;28;20067;-75
2023/03/11 06:31:18;;;;;;;5.55;2.03;;;;;;;;;;5071120;28;20439;-75
2023/03/11 06:33:44;;;;;;;4.72;1.70;;;;;;;;;;5072123;28;20136;-76
2023/03/11 06:36:12;;;;;;;4.68;1.60;;;;;;;;;;5054379;28;20131;-75
2023/03/11 06:38:38;;;;;;;3.42;1.60;;;;;;;;;;5061247;28;20472;-76
2023/03/11 06:41:05;;;;;;;5.32;1.15;;;;;;;;;;5050865;28;20053;-75
2023/03/11 06:43:32;;;;;;;4.03;1.23;;;;;;;;;;5052232;28;20103;-82
2023/03/11 06:45:58;;;;;;;3.55;0.90;;;;;;;;;;5052403;28;20116;-82
2023/03/11 06:48:25;;;;;;;3.47;1.20;;;;;;;;;;5052279;28;20060;-76
2023/03/11 06:50:57;;;;;;;4.10;1.13;;;;;;;;;;5051926;28;20403;-76
2023/03/11 06:53:24;;;;;;;4.72;1.38;;;;;;;;;;5051286;28;20479;-76
2023/03/11 06:55:59;;;;;;;3.70;1.35;;;;;;;;;;5051129;28;20491;-76
2023/03/11 06:58:25;;;;;;;4.70;1.20;;;;;;;;;;5050648;28;20048;-82
2023/03/11 07:00:52;;;;;;;4.05;1.00;;;;;;;;;;5027532;28;20045;-83
2023/03/11 07:03:18;;;;;;;3.00;0.95;;;;;;;;;;5046634;28;20060;-83
2023/03/11 07:05:44;;;;;;;4.93;1.25;;;;;;;;;;5050957;28;20079;-76
2023/03/11 07:08:10;;;;;;;3.83;0.90;;;;;;;;;;5034127;28;20072;-76
2023/03/11 07:10:36;;;;;;;6.18;1.30;;;;;;;;;;5051966;28;20052;-76
2023/03/11 07:13:02;;;;;;;3.67;1.20;;;;;;;;;;5050230;28;20052;-77
2023/03/11 07:15:28;;;;;;;3.95;1.05;;;;;;;;;;5051063;28;20045;-76
2023/03/11 07:17:54;;;;;;;3.00;0.95;;;;;;;;;;5050611;28;20530;-82
2023/03/11 07:20:20;;;;;;;5.57;1.30;;;;;;;;;;5067694;28;20052;-82
2023/03/11 07:22:46;;;;;;;4.90;1.15;;;;;;;;;;5050615;28;20044;-83
2023/03/11 07:25:12;;;;;;;6.97;1.05;;;;;;;;;;5052093;28;20037;-80
2023/03/11 07:27:38;;;;;;;6.13;1.60;;;;;;;;;;5051090;28;20483;-80
2023/03/11 07:30:05;;;;;;;4.18;0.98;;;;;;;;;;5050330;28;20518;-80
2023/03/11 07:32:31;;;;;;;5.75;1.10;;;;;;;;;;5050852;28;20107;-80
2023/03/11 07:34:57;;;;;;;2.28;1.00;;;;;;;;;;5069709;28;20091;-80
2023/03/11 07:37:23;;;;;;;2.85;0.90;;;;;;;;;;5054564;28;20399;-79
2023/03/11 07:39:49;;;;;;;3.53;1.10;;;;;;;;;;5060193;28;20491;-80
2023/03/11 07:42:15;;;;;;;3.65;1.10;;;;;;;;;;5058296;28;20047;-82
2023/03/11 07:44:41;;;;;;;5.00;1.02;;;;;;;;;;5057260;28;20403;-82
2023/03/11 07:47:07;;;;;;;5.43;1.20;;;;;;;;;;5047415;28;20037;-81
2023/03/11 07:49:34;;;;;;;3.13;0.93;;;;;;;;;;5038089;28;20037;-81
2023/03/11 07:52:00;;;;;;;4.65;1.25;;;;;;;;;;5055350;28;20045;-81
2023/03/11 07:54:26;;;;;;;5.70;1.10;;;;;;;;;;5055788;28;20064;-75
2023/03/11 07:56:52;;;;;;;3.45;0.90;;;;;;;;;;5053891;28;20041;-80
2023/03/11 07:59:18;;;;;;;3.97;1.10;;;;;;;;;;5054251;28;20053;-75
2023/03/11 08:01:46;;;;;;;7.80;1.45;;;;;;;;;;5052020;28;20048;-81
2023/03/11 08:04:12;;;;;;;11.23;2.35;;;;;;;;;;5055008;28;20087;-75
2023/03/11 08:06:40;;;;;;;3.88;1.00;;;;;;;;;;5054333;28;20399;-75
2023/03/11 08:09:08;;;;;;;5.25;1.05;;;;;;;;;;5053415;28;20060;-81
2023/03/11 08:11:34;;;;;;;3.28;1.17;;;;;;;;;;5054169;28;20040;-75
2023/03/11 08:14:00;;;;;;;4.32;1.27;;;;;;;;;;5053359;28;20048;-83
2023/03/11 08:16:26;;;;;;;7.22;1.13;;;;;;;;;;5055438;28;20045;-84
2023/03/11 08:18:53;;;;;;;5.63;1.13;;;;;;;;;;5037423;28;20069;-84
2023/03/11 08:21:21;;;;;;;3.50;1.30;;;;;;;;;;5055190;28;20403;-84
2023/03/11 08:23:47;;;;;;;5.60;1.40;;;;;;;;;;5037268;28;20045;-76
2023/03/11 08:26:15;;;;;;;4.10;1.13;;;;;;;;;;5053466;28;20118;-76
2023/03/11 08:28:41;;;;;;;4.80;1.35;;;;;;;;;;5028650;28;20048;-76
2023/03/11 08:31:15;;;;;;;5.75;1.40;;;;;;;;;;5053828;28;20491;-77
2023/03/11 08:33:41;;;;;;;4.00;1.20;;;;;;;;;;5087268;28;20052;-77
2023/03/11 08:36:08;;;;;;;4.95;1.40;;;;;;;;;;5053442;28;20380;-81
2023/03/11 08:38:34;;;;;;;4.50;1.60;;;;;;;;;;5053860;28;20044;-78
2023/03/11 08:41:00;;;;;;;6.65;1.45;;;;;;;;;;5070523;28;20537;-81
2023/03/11 08:43:26;;;;;;;5.80;1.15;;;;;;;;;;5073311;28;20044;-81
2023/03/11 08:45:52;;;;;;;5.20;1.30;;;;;;;;;;5072626;28;20052;-78
2023/03/11 08:48:18;;;;;;;4.43;1.20;;;;;;;;;;5073262;28;20033;-80
2023/03/11 08:50:44;;;;;;;6.95;1.10;;;;;;;;;;5061857;28;20049;-79
2023/03/11 08:53:11;;;;;;;5.38;1.13;;;;;;;;;;5070847;28;20067;-79
2023/03/11 08:55:37;;;;;;;7.13;1.20;;;;;;;;;;5073173;28;20044;-79
2023/03/11 08:58:03;;;;;;;3.67;1.13;;;;;;;;;;5054350;28;20049;-78
2023/03/11 09:00:29;;;;;;;4.43;1.10;;;;;;;;;;5053309;28;20036;-81
2023/03/11 09:02:55;;;;;;;3.65;1.00;;;;;;;;;;5054232;28;20045;-78
2023/03/11 09:05:21;;;;;;;4.03;1.10;;;;;;;;;;5052766;28;20045;-79
2023/03/11 09:07:47;;;;;;;4.50;1.10;;;;;;;;;;5022725;28;20391;-81
2023/03/11 09:10:15;;;;;;;7.85;1.20;;;;;;;;;;5052914;28;20048;-81
2023/03/11 09:12:41;;;;;;;6.18;1.23;;;;;;;;;;5053173;28;20384;-80
2023/03/11 09:15:08;;;;;;;3.28;1.08;;;;;;;;;;5052427;28;20045;-80
2023/03/11 09:17:34;;;;;;;4.53;1.05;;;;;;;;;;5069338;28;20095;-79
2023/03/11 09:20:00;;;;;;;5.40;1.27;;;;;;;;;;5053817;28;20082;-79
2023/03/11 09:22:26;;;;;;;4.47;1.23;;;;;;;;;;5069460;28;20120;-81
2023/03/11 09:24:52;;;;;;;5.20;1.30;;;;;;;;;;5053952;28;20033;-79
2023/03/11 09:27:18;;;;;;;5.45;1.27;;;;;;;;;;5052454;28;20116;-80
2023/03/11 09:29:44;;;;;;;3.83;1.50;;;;;;;;;;5052821;28;20527;-79
2023/03/11 09:32:12;;;;;;;3.97;1.13;;;;;;;;;;5053464;28;20029;-79
2023/03/11 09:34:38;;;;;;;5.78;1.10;;;;;;;;;;5052421;28;20041;-79
2023/03/11 09:37:05;;;;;;;4.97;1.20;;;;;;;;;;5053243;28;20132;-78
2023/03/11 09:39:31;;;;;;;5.22;1.63;;;;;;;;;;5069896;28;20044;-79
2023/03/11 09:42:17;;;;;;;3.17;1.20;;;;;;;;;;5063291;28;20048;-78
2023/03/11 09:44:45;;;;;;;4.68;1.20;;;;;;;;;;5061368;28;20443;-78
2023/03/11 09:47:11;;;;;;;4.07;1.05;;;;;;;;;;5052961;28;20099;-79
2023/03/11 09:49:46;;;;;;;5.07;1.48;;;;;;;;;;5052203;28;20036;-80
2023/03/11 09:52:12;;;;;;;;;;;;;;;;;;5039166;28;20052;-80
2023/03/11 09:54:41;;;;;;;5.28;1.42;;;;;;;;;;5068588;28;19917;-81
2023/03/11 09:57:10;;;;;;;6.75;1.20;;;;;;;;;;5053036;28;20041;-80
2023/03/11 09:59:36;;;;;;;3.15;1.30;;;;;;;;;;5052010;28;20037;-81
2023/03/11 10:02:04;;;;;;;3.97;1.20;;;;;;;;;;5040219;28;20095;-81
2023/03/11 10:04:33;;;;;;;4.60;1.40;;;;;;;;;;5051783;28;20045;-81
2023/03/11 10:07:01;;;;;;;5.45;1.30;;;;;;;;;;5052975;28;20039;-82
2023/03/11 10:09:40;;;;;;;5.88;1.20;;;;;;;;;;5057397;28;20033;-82
2023/03/11 10:12:09;;;;;;;5.00;1.25;;;;;;;;;;5057986;28;20041;-82
2023/03/11 10:14:35;;;;;;;6.20;1.17;;;;;;;;;;5037828;28;20044;-81
2023/03/11 10:17:10;;;;;;;5.18;1.10;;;;;;;;;;5051571;28;20040;-83
2023/03/11 10:19:42;;;;;;;5.57;1.20;;;;;;;;;;5051807;28;20036;-84
2023/03/11 10:22:17;;;;;;;5.85;1.20;;;;;;;;;;5051499;28;20141;-82
2023/03/11 10:24:53;;;;;;;4.82;1.20;;;;;;;;;;5052588;28;20121;-84
2023/03/11 10:27:22;;;;;;;3.75;1.13;;;;;;;;;;5051478;28;20037;-84
2023/03/11 10:29:53;;;;;;;5.95;1.10;;;;;;;;;;5051573;28;20041;-80
2023/03/11 10:32:29;;;;;;;3.05;1.00;;;;;;;;;;5051464;28;20122;-80
2023/03/11 10:35:14;;;;;;;7.97;1.75;;;;;;;;;;5051095;28;20041;-84
2023/03/11 10:37:42;;;;;;;3.22;0.88;;;;;;;;;;5051243;28;20421;-85
2023/03/11 10:40:17;;;;;;;6.68;1.35;;;;;;;;;;5059836;28;20036;-86
2023/03/11 10:42:45;;;;;;;4.78;1.20;;;;;;;;;;5054577;28;20083;-83
2023/03/11 10:45:14;;;;;;;3.72;1.08;;;;;;;;;;5071064;28;20036;-83
2023/03/11 10:47:40;;;;;;;6.05;1.20;;;;;;;;;;5057435;28;20491;-85
2023/03/11 10:50:07;;;;;;;3.85;1.10;;;;;;;;;;5068620;28;20040;-84
2023/03/11 10:52:42;;;;;;;4.25;1.10;;;;;;;;;;5052350;28;20053;-86
2023/03/11 10:55:08;;;;;;;2.83;1.08;;;;;;;;;;5052425;28;20040;-87
2023/03/11 10:57:36;;;;;;;4.57;1.10;;;;;;;;;;5051194;28;20089;-86
2023/03/11 11:00:16;;;;;;;5.05;1.00;;;;;;;;;;5050717;28;20064;-84
2023/03/11 11:02:56;;;;;;;4.82;1.10;;;;;;;;;;5046698;28;20094;-84
2023/03/11 11:05:34;;;;;;;5.63;1.52;;;;;;;;;;5050983;28;20052;-86
2023/03/11 11:08:03;;;;;;;6.28;1.35;;;;;;;;;;5051112;28;20040;-83
2023/03/11 11:10:30;;;;;;;2.70;0.88;;;;;;;;;;5056856;28;20086;-83
2023/03/11 11:13:12;;;;;;;7.28;1.30;;;;;;;;;;5041390;28;20441;-84
2023/03/11 11:15:50;;;;;;;5.03;1.17;;;;;;;;;;5040480;28;20093;-84
2023/03/11 11:18:18;;;;;;;4.50;1.02;;;;;;;;;;5057316;28;20122;-87
2023/03/11 11:21:05;;;;;;;5.68;1.00;;;;;;;;;;5058565;28;20072;-87
2023/03/11 11:23:34;;;;;;;5.93;1.20;;;;;;;;;;5057116;28;20120;-86
2023/03/11 11:26:03;;;;;;;5.50;1.10;;;;;;;;;;5057443;28;20080;-82
2023/03/11 11:28:30;;;;;;;5.72;1.00;;;;;;;;;;5041009;28;20438;-86
2023/03/11 11:31:04;;;;;;;4.18;1.00;;;;;;;;;;5057807;28;20133;-82
2023/03/11 11:33:48;;;;;;;3.40;0.90;;;;;;;;;;5035159;28;20124;-82
2023/03/11 11:36:15;;;;;;;3.72;1.08;;;;;;;;;;5051903;28;20275;-84
2023/03/11 11:38:41;;;;;;;5.28;0.90;;;;;;;;;;5073576;28;20080;-83
2023/03/11 11:41:16;;;;;;;2.10;0.75;;;;;;;;;;5048408;28;20118;-83
2023/03/11 11:44:02;;;;;;;3.07;0.73;;;;;;;;;;5055245;28;20472;-84
2023/03/11 11:46:30;;;;;;;4.63;0.98;;;;;;;;;;5058591;28;20499;-85
2023/03/11 11:49:03;;;;;;;4.28;0.82;;;;;;;;;;5058737;28;20045;-84
2023/03/11 11:51:41;;;;;;;5.38;0.93;;;;;;;;;;5042344;28;20052;-83
2023/03/11 11:54:14;;;;;;;6.88;0.98;;;;;;;;;;5064503;28;20083;-83
2023/03/11 11:56:40;;;;;;;4.78;1.00;;;;;;;;;;5057911;28;20053;-84
2023/03/11 11:59:17;;;;;;;5.00;0.90;;;;;;;;;;5057736;28;20507;-84
2023/03/11 12:01:46;;;;;;;8.13;1.02;;;;;;;;;;5040561;28;20045;-84
2023/03/11 12:04:31;;;;;;;4.07;1.02;;;;;;;;;;5057671;28;20053;-84
2023/03/11 12:07:11;;;;;;;7.35;1.42;;;;;;;;;;5040333;28;20124;-84
2023/03/11 12:10:00;;;;;;;3.38;0.80;;;;;;;;;;5057008;28;20037;-84
2023/03/11 12:12:34;;;;;;;3.08;0.90;;;;;;;;;;5057301;28;20399;-91
2023/03/11 12:15:20;;;;;;;3.95;0.80;;;;;;;;;;5057787;28;20069;-92
2023/03/11 12:17:47;;;;;;;3.22;0.88;;;;;;;;;;5057874;28;20041;-85
2023/03/11 12:20:45;;;;;;;5.55;0.98;;;;;;;;;;5055953;28;20065;-93
2023/03/11 12:23:17;;;;;;;5.82;0.82;;;;;;;;;;5045643;28;20075;-93
2023/03/11 12:26:02;;;;;;;3.45;0.68;;;;;;;;;;5055896;28;20124;-84
2023/03/11 12:28:50;;;;;;;2.95;0.88;;;;;;;;;;5040181;28;20029;-84
2023/03/11 12:31:16;;;;;;;2.65;0.70;;;;;;;;;;5037948;28;20041;-94
2023/03/11 12:33:50;;;;;;;5.03;1.40;;;;;;;;;;5054975;28;20049;-94
2023/03/11 12:36:38;;;;;;;3.90;0.77;;;;;;;;;;5045502;28;20049;-96
2023/03/11 12:39:06;;;;;;;4.30;0.77;;;;;;;;;;5096175;28;20527;-83
2023/03/11 12:41:32;;;;;;;3.08;0.85;;;;;;;;;;5073285;28;20036;-84
2023/03/11 12:43:59;;;;;;;2.15;0.60;;;;;;;;;;5032010;28;20040;-83
2023/03/11 12:46:44;;;;;;;4.25;0.90;;;;;;;;;;5052994;28;20048;-84
2023/03/11 12:49:12;;;;;;;2.97;0.70;;;;;;;;;;5045510;23;20172;-75
2023/03/11 12:51:39;;;;;;;3.35;0.60;;;;;;;;;;4993287;28;20089;-80
2023/03/11 12:54:20;;;;;;;4.50;0.77;;;;;;;;;;4977468;28;20042;-81
2023/03/11 12:56:52;;;;;;;3.75;1.02;;;;;;;;;;4993308;28;20133;-80
2023/03/11 12:59:37;;;;;;;4.38;0.80;;;;;;;;;;4993972;28;20046;-80
2023/03/11 13:02:09;;;;;;;2.85;0.80;;;;;;;;;;4980494;28;20050;-80
2023/03/11 13:04:41;;;;;;;4.32;0.68;;;;;;;;;;4993579;28;20400;-80
2023/03/11 13:07:07;;;;;;;4.63;0.77;;;;;;;;;;5007002;28;20042;-78
2023/03/11 13:09:33;;;;;;;6.93;0.73;;;;;;;;;;4993197;28;20042;-78
2023/03/11 13:11:59;;;;;;;3.83;0.57;;;;;;;;;;4993433;28;20042;-78
2023/03/11 13:14:34;;;;;;;3.75;0.95;;;;;;;;;;4977297;28;20065;-78
2023/03/11 13:17:19;;;;;;;4.53;0.60;;;;;;;;;;4993473;28;20423;-79
2023/03/11 13:19:49;;;;;;;5.00;0.85;;;;;;;;;;4993409;28;20129;-78
2023/03/11 13:22:34;;;;;;;5.15;0.70;;;;;;;;;;4980272;28;20054;-78
2023/03/11 13:25:19;;;;;;;3.40;1.10;;;;;;;;;;4993122;28;20050;-82
2023/03/11 13:27:48;;;;;;;4.65;0.90;;;;;;;;;;4990413;28;20397;-82
2023/03/11 13:30:24;;;;;;;6.30;0.77;;;;;;;;;;4993026;28;20050;-82
2023/03/11 13:33:09;;;;;;;5.38;0.90;;;;;;;;;;4993496;28;20050;-83
2023/03/11 13:35:44;;;;;;;5.30;0.80;;;;;;;;;;4993252;28;20501;-78
2023/03/11 13:38:29;;;;;;;4.78;0.85;;;;;;;;;;4992667;28;20042;-82
2023/03/11 13:40:55;;;;;;;4.50;0.90;;;;;;;;;;5008000;28;20448;-78
2023/03/11 13:43:23;;;;;;;4.72;0.88;;;;;;;;;;5012483;28;20046;-78
2023/03/11 13:45:54;;;;;;;5.45;0.90;;;;;;;;;;5011988;28;20124;-78
2023/03/11 13:48:31;;;;;;;4.88;1.00;;;;;;;;;;5012118;28;20042;-78
2023/03/11 13:51:00;;;;;;;6.13;1.15;;;;;;;;;;4995813;28;20045;-78
2023/03/11 13:53:46;;;;;;;2.63;0.90;;;;;;;;;;5012234;28;20046;-78
2023/03/11 13:56:17;;;;;;;6.30;1.15;;;;;;;;;;5011904;28;20050;-77
2023/03/11 13:58:43;;;;;;;6.82;0.90;;;;;;;;;;5011786;28;20041;-78
2023/03/11 14:01:14;;;;;;;4.93;1.00;;;;;;;;;;5003027;28;20108;-78
2023/03/11 14:03:41;;;;;;;5.55;0.88;;;;;;;;;;5011416;28;20030;-78
2023/03/11 14:06:10;;;;;;;6.47;1.02;;;;;;;;;;5012562;28;20507;-82
2023/03/11 14:08:37;;;;;;;3.72;0.90;;;;;;;;;;4995435;28;20373;-82
2023/03/11 14:11:13;;;;;;;5.47;1.00;;;;;;;;;;5012520;28;20518;-82
2023/03/11 14:13:48;;;;;;;5.80;1.20;;;;;;;;;;4989990;28;20038;-82
2023/03/11 14:16:22;;;;;;;6.95;1.10;;;;;;;;;;4975941;28;20043;-83
2023/03/11 14:19:03;;;;;;;4.88;1.02;;;;;;;;;;4992047;28;20492;-82
2023/03/11 14:21:30;;;;;;;6.57;1.40;;;;;;;;;;4992182;28;20042;-83
2023/03/11 14:23:56;;;;;;;4.03;1.00;;;;;;;;;;5001619;28;20045;-78
2023/03/11 14:26:33;;;;;;;5.43;1.00;;;;;;;;;;4995413;28;20046;-78
2023/03/11 14:29:10;;;;;;;3.05;1.00;;;;;;;;;;4991849;28;20077;-78
2023/03/11 14:31:38;;;;;;;5.03;1.30;;;;;;;;;;4975399;28;20042;-78
2023/03/11 14:34:12;;;;;;;4.07;1.00;;;;;;;;;;4991671;28;20050;-79
2023/03/11 14:36:43;;;;;;;4.22;1.00;;;;;;;;;;4975792;28;20497;-79
2023/03/11 14:39:28;;;;;;;4.30;0.90;;;;;;;;;;4995153;28;20053;-83
2023/03/11 14:41:57;;;;;;;5.43;0.90;;;;;;;;;;5011496;28;20440;-79
2023/03/11 14:44:24;;;;;;;5.57;1.38;;;;;;;;;;5011839;28;20038;-82
2023/03/11 14:46:51;;;;;;;3.55;1.27;;;;;;;;;;5011187;28;20046;-83
2023/03/11 14:49:20;;;;;;;5.78;0.93;;;;;;;;;;5011006;28;20057;-83
2023/03/11 14:51:56;;;;;;;2.45;0.77;;;;;;;;;;4996873;28;20133;-83
2023/03/11 14:54:27;;;;;;;5.95;1.00;;;;;;;;;;4991911;28;20084;-78